메인 페이지
METAR-TAF:

METAR-TAF

공항 :

루안다 콰트루 드 페베레이루 공항

루안다, 앙골라

위도: 08-51S, 경도: 013-14E, 고도: 74m

현재 날씨관측

예보는 27분 전, 01:00시(UTC)에 발표되었습니다.
남동6kt
온도 26°C
습도 84%
기압 1012 hPa
시정 10km 이상
고도 1900ft 상공 구름 조금
고도 7000ft 상공 구름 많음

METAR: FNLU 180100Z 14006KT 9999 FEW019 BKN070 26/23 Q1012

시각: 02:27 (01:27 UTC)

예보

예보는 2 시간 27분 전, 23:00시(UTC)에 발표되었습니다.
예보 대상 시간: 18일 00시부터 19일 06시까지 (UTC)
6kt
시정 10km 이상
고도 2200ft 상공 구름 조금
고도 2500ft 상공 구름 보통
일시적
18일 12시부터 18일 16시까지 (UTC)
9kt
시정: 8000m
약한이슬비
전환 중
18일 20시부터 18일 22시까지 (UTC)
남남서7kt
시정 10km 이상
고도 2000ft 상공 구름 조금
고도 5000ft 상공 구름 보통

TAF: FNLU 172300Z 1800/1906 17006KT 9999 FEW022 SCT025 TEMPO 1812/1816 27009KT 8000 -DZ BECMG 1820/1822 20007KT 9999 FEW020 SCT050

4,000개 이상의 공항 관측 자료 및 예보 (METAR 및 TAF 보고).

지도상에서 검색 가능한 기상관측소가 노란 점과 빨간 점으로 표시되어 있습니다.

기상관측소 명을 보려면 표시 위로 마우스를 이동하세요.

날씨 관측과 예보를 보려면 클릭하세요.

지도 변경 : 확대하려면 엑스 표시가 있는 녹색 버튼, 축소하려면 빼기 표시가 있는 녹색 버튼, 다음 페이지의 지도를 보려면 녹색 화살표를 클릭하세요.


METAR-TAF: